Hovedside
METAR-TAF:

METAR-TAF

Lufthavner :

Ouargla, Algerie

breddegrad: 31-55N, lengdegrad: 005-24E, høyde over havet: 141 m

Gjeldene værobservasjon

Denne rapporten ble laget for 24 minutter siden, klokken 02:00 UTC
Flau vind
Temperatur 7°C
Luftfuktighet 87%
Trykk 1017 hPa
Sikt 10 km eller mer
ingen skyer under 1500 m og ingen bygeskyer

METAR: DAUU 210200Z 00000KT CAVOK 07/05 Q1017

Tid: 03:24 (02:24 UTC)

Varsel

Denne rapporten ble laget for 3 timer og 24 minutter siden, klokken 23:00 UTC
Varsel gyldig fra 21. klokken 00 UTC til 21. klokken 09 UTC
Vind 8 kt fra Nord-nordvest
Sikt 10 km eller mer
ingen skyer under 1500 m og ingen bygeskyer

TAF: DAUU 202300Z 2100/2109 33008KT CAVOK

Værobservasjoner og værvarsel for over 4000 flyplasser (METAR- og TAF-rapporter).

Tilgjengelige stasjoner er representert av de røde og gule prikkene på kartet.

Hold musepekeren over prikken for å se navnet på stasjonen.

Klikk så for å se værobservasjoner og -varsler.

For å forandre kartet kan du klikke på den grønne knappen med svart kryss for å zoome inn, på den grønne knappen med strek for å zoome ut, eller på de grønne pilene for å se tilstøtende kart.


METAR-TAF: